NCAR-RAP Real-Time Weather Data

Output produced by METARs form (01 December 2020  18:05 UTC)
found at http://weather.rap.ucar.edu/surface/
 
KGRR 011653Z 32015G24KT 10SM FEW026 SCT250 02/M05 A2988 RMK AO2 PK WND 31026/1618 SLP124 T00171050
KGRR 011553Z 31020G25KT 10SM SCT024 BKN250 01/M05 A2988 RMK AO2 SLP127 T00061050
KGRR 011529Z 32015G24KT 10SM SCT024 BKN250 00/M05 A2988 RMK AO2 T00001050
KGRR 011453Z 31013G22KT 10SM BKN024 BKN250 00/M06 A2988 RMK AO2 SLP127 T00001056 51007
KGRR 011353Z 32014G20KT 10SM BKN025 BKN250 M01/M06 A2988 RMK AO2 SLP126 T10111056
KGRR 011253Z 34013G21KT 10SM OVC025 M01/M06 A2987 RMK AO2 SLP123 T10111061
KGRR 011153Z 33010KT 10SM OVC025 M01/M06 A2986 RMK AO2 SLP120 T10111056 11006 21011 53005
KGRR 011053Z 33016G22KT 10SM OVC025 M01/M06 A2985 RMK AO2 SLP117 T10111061
KGRR 010953Z AUTO 32012KT 10SM OVC025 M01/M06 A2984 RMK AO2 SLP115 T10111061
KGRR 010853Z AUTO 34013G24KT 10SM OVC027 M01/M06 A2984 RMK AO2 SLP115 T10111061 56001
KGRR 010753Z AUTO 32013G23KT 10SM OVC027 M01/M07 A2985 RMK AO2 SLP114 T10111067
KGRR 010653Z AUTO 33013KT 10SM OVC029 M01/M07 A2984 RMK AO2 SLP114 T10111067
KGRR 010553Z AUTO 34013G19KT 10SM OVC027 M01/M06 A2985 RMK AO2 SLP115 T10061061 10000 21006 56004
KGRR 010453Z 34015G23KT 10SM OVC029 M01/M07 A2985 RMK AO2 PK WND 32026/0359 SLP116 LAST T10061067 400391006
KGRR 010353Z 34012G22KT 10SM OVC029 M01/M06 A2985 RMK AO2 PK WND 33027/0255 SLP117 T10061061
KGRR 010253Z 33017G22KT 10SM OVC029 M01/M06 A2986 RMK AO2 PK WND 35026/0224 SLP120 T10061061 50000
KGRR 010153Z 34015G24KT 10SM OVC029 00/M06 A2986 RMK AO2 SLP121 T00001056